Aguilar, Colorado
Current Conditions -  °F | °C
As of 5:54 AM on Saturday 20 Dec 2014 (Local Time) from KTAD Reporting Station
Clear Clear  
Wind Chill: 13°   Ceiling: Unl
Heat Index: 25°   Visibility: 10mi
Dew Point: 13°   Wind: 14mph
Humidity: 60%   Direction: 260°W
Pressure: 30.06"   Gusts: NA
Location:  37.4°N, 104.65°W
Report Text: KTAD 201254Z AUTO 26012KT 10SM CLR M04/M11 A3006 RMK AO2 SLP195 T10391106
Loading
Personal Weather Stations






























Interactive Weather Map New forecast layout! Learn more

10-Day Weather Forecast

Advertisements
Track Severe Weather on mobile